PWSweather.com
Personal Weather Stations
Station Observations
BWSWX1
Teesside, BillinghamGB TS23 1DL

TeessideBillinghamGB TS23 1DL

Lat: 54.588219, Lon: -1.289528

Elevation: 39

Station Type: Davis Vantage Pro2 Plus

http://billinghamweather.com/index.php

High Low Average
Temperature 62.9°F17.2°C 51.1°F10.6°C 59.9°F15.5°C
Dew Point 61.1°F16.2°C 45.8°F7.7°C 54.4°F12.4°C
Winds 8.2 mph 13.2 kmh Calm Calm 2.0 mph WSW3.2 kmh WSW
Wind Gusts 14.0 mph22.5 kmh -- 5.0 mph8.0 kmh
Humidity 94% 60% 83%
Pressure 29.73 in1006.8 mb 29.54 in1000.3 mb -
Precipitation 0.18 in4.6 mm - -
Hour Temp Dew Point Humidity Winds Wind Gusts Pressure Precip Precip Rate Daily Precip Total
12:00 AM 61.8°F16.6°C 59.5°F15.3°C 92% Calm Calm -- 29.56 in1001.0 mb - 0.00 in0.0 mm 0.00 in0.0 mm
12:10 AM 61.8°F16.6°C 59.5°F15.3°C 92% Calm Calm -- 29.56 in1001.0 mb - 0.00 in0.0 mm 0.00 in0.0 mm
12:20 AM 61.9°F16.6°C 59.5°F15.3°C 92% Calm Calm -- 29.57 in1001.4 mb - 0.00 in0.0 mm 0.00 in0.0 mm
12:30 AM 62.0°F16.7°C 59.6°F15.3°C 92% Calm Calm -- 29.57 in1001.4 mb - 0.00 in0.0 mm 0.00 in0.0 mm
12:40 AM 62.0°F16.7°C 59.6°F15.3°C 92% Calm Calm -- 29.56 in1001.0 mb - 0.00 in0.0 mm 0.00 in0.0 mm
12:50 AM 62.0°F16.7°C 59.6°F15.3°C 92% Calm Calm -- 29.56 in1001.0 mb - 0.00 in0.0 mm 0.00 in0.0 mm
01:00 AM 62.1°F16.7°C 60.0°F15.6°C 93% 0.2 mph NW0.3 kmh NW 1.0 mph1.6 kmh 29.56 in1001.0 mb - 0.00 in0.0 mm 0.00 in0.0 mm
01:10 AM 62.2°F16.8°C 60.1°F15.6°C 93% 0.8 mph W1.3 kmh W 2.0 mph3.2 kmh 29.56 in1001.0 mb - 0.01 in0.3 mm 0.01 in0.3 mm
01:20 AM 62.3°F16.8°C 60.2°F15.7°C 93% 0.6 mph SW1.0 kmh SW 2.0 mph3.2 kmh 29.56 in1001.0 mb - 0.00 in0.0 mm 0.01 in0.3 mm
01:30 AM 62.3°F16.8°C 60.3°F15.7°C 93% 0.1 mph S0.2 kmh S 1.0 mph1.6 kmh 29.55 in1000.7 mb - 0.00 in0.0 mm 0.01 in0.3 mm
01:40 AM 62.3°F16.8°C 60.2°F15.7°C 93% Calm Calm 1.0 mph1.6 kmh 29.55 in1000.7 mb - 0.00 in0.0 mm 0.01 in0.3 mm
01:50 AM 62.3°F16.8°C 60.2°F15.7°C 93% Calm Calm -- 29.55 in1000.7 mb - 0.00 in0.0 mm 0.01 in0.3 mm
02:00 AM 62.3°F16.8°C 60.2°F15.7°C 93% Calm Calm 1.0 mph1.6 kmh 29.55 in1000.7 mb - 0.00 in0.0 mm 0.01 in0.3 mm
02:10 AM 62.2°F16.8°C 60.2°F15.7°C 93% 0.1 mph S0.2 kmh S 1.0 mph1.6 kmh 29.55 in1000.7 mb - 0.00 in0.0 mm 0.01 in0.3 mm
02:20 AM 62.2°F16.8°C 60.2°F15.7°C 93% 0.3 mph S0.5 kmh S 2.0 mph3.2 kmh 29.55 in1000.7 mb - 0.00 in0.0 mm 0.01 in0.3 mm
02:30 AM 62.3°F16.8°C 60.2°F15.7°C 93% 0.5 mph SW0.8 kmh SW 1.0 mph1.6 kmh 29.55 in1000.7 mb - 0.00 in0.0 mm 0.01 in0.3 mm
02:40 AM 62.4°F16.9°C 60.7°F15.9°C 94% 0.8 mph SSE1.3 kmh SSE 1.0 mph1.6 kmh 29.55 in1000.7 mb - 0.00 in0.0 mm 0.01 in0.3 mm
02:50 AM 62.5°F16.9°C 60.7°F15.9°C 94% 0.9 mph S1.4 kmh S 2.0 mph3.2 kmh 29.55 in1000.7 mb - 0.00 in0.0 mm 0.01 in0.3 mm
03:00 AM 62.6°F17.0°C 60.8°F16.0°C 94% 0.9 mph WSW1.4 kmh WSW 2.0 mph3.2 kmh 29.55 in1000.7 mb - 0.00 in0.0 mm 0.01 in0.3 mm
03:10 AM 62.7°F17.1°C 60.9°F16.1°C 94% 0.7 mph WSW1.1 kmh WSW 2.0 mph3.2 kmh 29.55 in1000.7 mb - 0.00 in0.0 mm 0.01 in0.3 mm
03:20 AM 62.7°F17.1°C 61.0°F16.1°C 94% 0.6 mph SW1.0 kmh SW 1.0 mph1.6 kmh 29.55 in1000.7 mb - 0.00 in0.0 mm 0.01 in0.3 mm
03:30 AM 62.9°F17.2°C 61.1°F16.2°C 94% 1.9 mph WSW3.1 kmh WSW 4.0 mph6.4 kmh 29.55 in1000.7 mb - 0.00 in0.0 mm 0.01 in0.3 mm
03:40 AM 62.9°F17.2°C 61.1°F16.2°C 94% 0.9 mph W1.4 kmh W 2.0 mph3.2 kmh 29.54 in1000.3 mb - 0.00 in0.0 mm 0.01 in0.3 mm
03:50 AM 62.9°F17.2°C 61.1°F16.2°C 94% 0.8 mph S1.3 kmh S 2.0 mph3.2 kmh 29.54 in1000.3 mb - 0.00 in0.0 mm 0.01 in0.3 mm
04:00 AM 62.9°F17.2°C 61.1°F16.2°C 94% 0.6 mph SW1.0 kmh SW 2.0 mph3.2 kmh 29.54 in1000.3 mb - 0.00 in0.0 mm 0.01 in0.3 mm
04:10 AM 62.8°F17.1°C 61.1°F16.2°C 94% 0.3 mph SW0.5 kmh SW 1.0 mph1.6 kmh 29.55 in1000.7 mb - 0.00 in0.0 mm 0.01 in0.3 mm
04:20 AM 62.8°F17.1°C 61.0°F16.1°C 94% 1.4 mph SW2.3 kmh SW 5.0 mph8.0 kmh 29.55 in1000.7 mb - 0.00 in0.0 mm 0.01 in0.3 mm
04:30 AM 62.9°F17.2°C 61.1°F16.2°C 94% 1.2 mph S1.9 kmh S 2.0 mph3.2 kmh 29.55 in1000.7 mb - 0.00 in0.0 mm 0.01 in0.3 mm
04:40 AM 62.8°F17.1°C 61.0°F16.1°C 94% 0.9 mph SSW1.4 kmh SSW 2.0 mph3.2 kmh 29.55 in1000.7 mb - 0.00 in0.0 mm 0.01 in0.3 mm
04:50 AM 62.6°F17.0°C 60.8°F16.0°C 94% 1.3 mph WSW2.1 kmh WSW 5.0 mph8.0 kmh 29.55 in1000.7 mb - 0.00 in0.0 mm 0.01 in0.3 mm
05:00 AM 62.3°F16.8°C 60.6°F15.9°C 94% 2.3 mph S3.7 kmh S 4.0 mph6.4 kmh 29.56 in1001.0 mb - 0.00 in0.0 mm 0.01 in0.3 mm
05:10 AM 62.2°F16.8°C 60.5°F15.8°C 94% 1.6 mph W2.6 kmh W 5.0 mph8.0 kmh 29.55 in1000.7 mb - 0.00 in0.0 mm 0.01 in0.3 mm
05:20 AM 62.1°F16.7°C 60.4°F15.8°C 94% 0.9 mph WSW1.4 kmh WSW 2.0 mph3.2 kmh 29.56 in1001.0 mb - 0.00 in0.0 mm 0.01 in0.3 mm
05:30 AM 62.2°F16.8°C 60.5°F15.8°C 94% 0.4 mph SSW0.6 kmh SSW 1.0 mph1.6 kmh 29.56 in1001.0 mb - 0.02 in0.5 mm 0.02 in0.5 mm
05:40 AM 62.4°F16.9°C 60.7°F15.9°C 94% 0.9 mph SW1.4 kmh SW 2.0 mph3.2 kmh 29.56 in1001.0 mb - 0.01 in0.3 mm 0.03 in0.8 mm
05:50 AM 62.5°F16.9°C 60.7°F15.9°C 94% 2.0 mph S3.2 kmh S 5.0 mph8.0 kmh 29.56 in1001.0 mb - 0.00 in0.0 mm 0.03 in0.8 mm
06:00 AM 62.5°F16.9°C 60.7°F15.9°C 94% 0.9 mph S1.4 kmh S 3.0 mph4.8 kmh 29.57 in1001.4 mb - 0.00 in0.0 mm 0.03 in0.8 mm
06:10 AM 62.5°F16.9°C 60.7°F15.9°C 94% 0.1 mph W0.2 kmh W 1.0 mph1.6 kmh 29.57 in1001.4 mb - 0.00 in0.0 mm 0.03 in0.8 mm
06:20 AM 62.3°F16.8°C 60.6°F15.9°C 94% 0.9 mph SW1.4 kmh SW 2.0 mph3.2 kmh 29.57 in1001.4 mb - 0.00 in0.0 mm 0.03 in0.8 mm
06:30 AM 62.2°F16.8°C 60.5°F15.8°C 94% 1.8 mph WSW2.9 kmh WSW 3.0 mph4.8 kmh 29.57 in1001.4 mb - 0.00 in0.0 mm 0.03 in0.8 mm
06:40 AM 62.3°F16.8°C 60.5°F15.8°C 94% 1.8 mph SSW2.9 kmh SSW 4.0 mph6.4 kmh 29.57 in1001.4 mb - 0.00 in0.0 mm 0.03 in0.8 mm
06:50 AM 62.7°F17.1°C 60.9°F16.1°C 94% 2.9 mph SW4.7 kmh SW 5.0 mph8.0 kmh 29.57 in1001.4 mb - 0.00 in0.0 mm 0.03 in0.8 mm
07:00 AM 62.4°F16.9°C 60.4°F15.8°C 93% 3.1 mph WNW5.0 kmh WNW 6.0 mph9.7 kmh 29.57 in1001.4 mb - 0.00 in0.0 mm 0.03 in0.8 mm
07:10 AM 61.8°F16.6°C 59.1°F15.1°C 91% 6.5 mph NW10.5 kmh NW 9.0 mph14.5 kmh 29.58 in1001.7 mb - 0.00 in0.0 mm 0.03 in0.8 mm
07:20 AM 61.6°F16.4°C 58.6°F14.8°C 90% 5.2 mph N8.4 kmh N 9.0 mph14.5 kmh 29.58 in1001.7 mb - 0.00 in0.0 mm 0.03 in0.8 mm
07:30 AM 61.6°F16.4°C 58.3°F14.6°C 89% 5.1 mph WNW8.2 kmh WNW 12.0 mph19.3 kmh 29.58 in1001.7 mb - 0.00 in0.0 mm 0.03 in0.8 mm
07:40 AM 61.6°F16.4°C 57.7°F14.3°C 87% 3.5 mph WSW5.6 kmh WSW 8.0 mph12.9 kmh 29.59 in1002.0 mb - 0.00 in0.0 mm 0.03 in0.8 mm
07:50 AM 61.7°F16.5°C 57.8°F14.3°C 87% 6.3 mph NW10.1 kmh NW 12.0 mph19.3 kmh 29.59 in1002.0 mb - 0.00 in0.0 mm 0.03 in0.8 mm
08:00 AM 62.0°F16.7°C 57.8°F14.3°C 86% 6.0 mph WSW9.7 kmh WSW 9.0 mph14.5 kmh 29.59 in1002.0 mb - 0.00 in0.0 mm 0.03 in0.8 mm
08:10 AM 62.5°F16.9°C 57.9°F14.4°C 85% 6.0 mph WSW9.7 kmh WSW 9.0 mph14.5 kmh 29.60 in1002.4 mb - 0.00 in0.0 mm 0.03 in0.8 mm
08:20 AM 62.5°F16.9°C 56.9°F13.8°C 82% 4.3 mph SW6.9 kmh SW 6.0 mph9.7 kmh 29.60 in1002.4 mb - 0.00 in0.0 mm 0.03 in0.8 mm
08:30 AM 62.5°F16.9°C 56.9°F13.8°C 82% 3.6 mph WSW5.8 kmh WSW 6.0 mph9.7 kmh 29.60 in1002.4 mb - 0.00 in0.0 mm 0.03 in0.8 mm
08:40 AM 62.1°F16.7°C 56.2°F13.4°C 81% 4.4 mph WSW7.1 kmh WSW 7.0 mph11.3 kmh 29.61 in1002.7 mb - 0.00 in0.0 mm 0.03 in0.8 mm
08:50 AM 61.7°F16.5°C 55.8°F13.2°C 81% 2.1 mph SW3.4 kmh SW 3.0 mph4.8 kmh 29.61 in1002.7 mb - 0.00 in0.0 mm 0.03 in0.8 mm
09:00 AM 61.3°F16.3°C 56.1°F13.4°C 83% 1.6 mph SSE2.6 kmh SSE 5.0 mph8.0 kmh 29.61 in1002.7 mb - 0.00 in0.0 mm 0.03 in0.8 mm
09:10 AM 60.7°F15.9°C 55.8°F13.2°C 84% 2.7 mph WNW4.3 kmh WNW 5.0 mph8.0 kmh 29.61 in1002.7 mb - 0.01 in0.3 mm 0.04 in1.0 mm
09:20 AM 60.0°F15.6°C 55.5°F13.1°C 85% 3.2 mph NNW5.1 kmh NNW 7.0 mph11.3 kmh 29.60 in1002.4 mb - 0.03 in0.8 mm 0.06 in1.5 mm
09:30 AM 59.4°F15.2°C 55.5°F13.1°C 87% 2.7 mph NW4.3 kmh NW 6.0 mph9.7 kmh 29.59 in1002.0 mb - 0.03 in0.8 mm 0.09 in2.3 mm
09:40 AM 59.1°F15.1°C 55.9°F13.3°C 89% 2.4 mph WSW3.9 kmh WSW 5.0 mph8.0 kmh 29.60 in1002.4 mb - 0.02 in0.5 mm 0.10 in2.5 mm
09:50 AM 59.5°F15.3°C 56.9°F13.8°C 91% 3.3 mph W5.3 kmh W 6.0 mph9.7 kmh 29.61 in1002.7 mb - 0.01 in0.3 mm 0.11 in2.8 mm
10:00 AM 59.8°F15.4°C 57.2°F14.0°C 91% 4.0 mph WSW6.4 kmh WSW 5.0 mph8.0 kmh 29.61 in1002.7 mb - 0.00 in0.0 mm 0.11 in2.8 mm
10:10 AM 60.2°F15.7°C 57.5°F14.2°C 91% 0.9 mph NW1.4 kmh NW 3.0 mph4.8 kmh 29.61 in1002.7 mb - 0.00 in0.0 mm 0.11 in2.8 mm
10:20 AM 60.8°F16.0°C 58.2°F14.6°C 91% 3.5 mph W5.6 kmh W 9.0 mph14.5 kmh 29.61 in1002.7 mb - 0.00 in0.0 mm 0.11 in2.8 mm
10:30 AM 60.6°F15.9°C 57.7°F14.3°C 90% 3.6 mph NW5.8 kmh NW 6.0 mph9.7 kmh 29.61 in1002.7 mb - 0.00 in0.0 mm 0.11 in2.8 mm
10:40 AM 60.2°F15.7°C 56.9°F13.8°C 89% 3.9 mph NNW6.3 kmh NNW 7.0 mph11.3 kmh 29.61 in1002.7 mb - 0.00 in0.0 mm 0.11 in2.8 mm
10:50 AM 60.4°F15.8°C 57.5°F14.2°C 90% 3.0 mph WNW4.8 kmh WNW 5.0 mph8.0 kmh 29.61 in1002.7 mb - 0.00 in0.0 mm 0.11 in2.8 mm
11:00 AM 60.8°F16.0°C 57.5°F14.2°C 89% 3.2 mph W5.1 kmh W 6.0 mph9.7 kmh 29.62 in1003.0 mb - 0.00 in0.0 mm 0.11 in2.8 mm
11:10 AM 60.5°F15.8°C 56.3°F13.5°C 86% 5.1 mph NW8.2 kmh NW 10.0 mph16.1 kmh 29.62 in1003.0 mb - 0.00 in0.0 mm 0.11 in2.8 mm
11:20 AM 60.5°F15.8°C 55.3°F12.9°C 83% 5.0 mph NW8.0 kmh NW 8.0 mph12.9 kmh 29.62 in1003.0 mb - 0.00 in0.0 mm 0.11 in2.8 mm
11:30 AM 60.3°F15.7°C 54.8°F12.7°C 82% 5.1 mph W8.2 kmh W 10.0 mph16.1 kmh 29.62 in1003.0 mb - 0.00 in0.0 mm 0.11 in2.8 mm
11:40 AM 59.3°F15.2°C 53.8°F12.1°C 82% 5.7 mph WSW9.2 kmh WSW 8.0 mph12.9 kmh 29.63 in1003.4 mb - 0.00 in0.0 mm 0.11 in2.8 mm
11:50 AM 58.5°F14.7°C 53.4°F11.9°C 83% 3.8 mph NW6.1 kmh NW 6.0 mph9.7 kmh 29.63 in1003.4 mb - 0.00 in0.0 mm 0.11 in2.8 mm
12:00 PM 57.5°F14.2°C 52.7°F11.5°C 84% 4.9 mph NW7.9 kmh NW 7.0 mph11.3 kmh 29.64 in1003.7 mb - 0.02 in0.5 mm 0.13 in3.3 mm
12:10 PM 56.8°F13.8°C 52.7°F11.5°C 86% 2.3 mph WNW3.7 kmh WNW 5.0 mph8.0 kmh 29.64 in1003.7 mb - 0.01 in0.3 mm 0.13 in3.3 mm
12:20 PM 56.9°F13.8°C 53.0°F11.7°C 87% 2.8 mph WNW4.5 kmh WNW 5.0 mph8.0 kmh 29.64 in1003.7 mb - 0.01 in0.3 mm 0.14 in3.6 mm
12:30 PM 57.1°F13.9°C 53.6°F12.0°C 88% 2.2 mph WSW3.5 kmh WSW 3.0 mph4.8 kmh 29.64 in1003.7 mb - 0.00 in0.0 mm 0.14 in3.6 mm
12:40 PM 57.2°F14.0°C 53.7°F12.1°C 88% 1.8 mph WNW2.9 kmh WNW 3.0 mph4.8 kmh 29.64 in1003.7 mb - 0.00 in0.0 mm 0.14 in3.6 mm
12:50 PM 57.3°F14.1°C 54.1°F12.3°C 89% 0.9 mph W1.4 kmh W 2.0 mph3.2 kmh 29.65 in1004.1 mb - 0.01 in0.3 mm 0.15 in3.8 mm
01:00 PM 57.3°F14.1°C 54.1°F12.3°C 89% 0.1 mph WNW0.2 kmh WNW 1.0 mph1.6 kmh 29.64 in1003.7 mb - 0.00 in0.0 mm 0.15 in3.8 mm
01:10 PM 57.4°F14.1°C 54.2°F12.3°C 89% 0.4 mph WNW0.6 kmh WNW 1.0 mph1.6 kmh 29.64 in1003.7 mb - 0.01 in0.3 mm 0.17 in4.3 mm
01:20 PM 57.5°F14.2°C 54.3°F12.4°C 89% 0.7 mph WNW1.1 kmh WNW 1.0 mph1.6 kmh 29.64 in1003.7 mb - 0.02 in0.5 mm 0.17 in4.3 mm
01:30 PM 57.7°F14.3°C 54.5°F12.5°C 89% Calm Calm -- 29.63 in1003.4 mb - 0.00 in0.0 mm 0.17 in4.3 mm
01:40 PM 57.8°F14.3°C 54.5°F12.5°C 89% 2.3 mph SW3.7 kmh SW 3.0 mph4.8 kmh 29.64 in1003.7 mb - 0.00 in0.0 mm 0.17 in4.3 mm
01:50 PM 57.6°F14.2°C 54.3°F12.4°C 89% 2.6 mph WSW4.2 kmh WSW 5.0 mph8.0 kmh 29.64 in1003.7 mb - 0.00 in0.0 mm 0.17 in4.3 mm
02:00 PM 57.7°F14.3°C 54.8°F12.7°C 90% 3.2 mph SW5.1 kmh SW 6.0 mph9.7 kmh 29.64 in1003.7 mb - 0.00 in0.0 mm 0.17 in4.3 mm
02:10 PM 58.6°F14.8°C 55.3°F12.9°C 89% 2.5 mph WNW4.0 kmh WNW 5.0 mph8.0 kmh 29.65 in1004.1 mb - 0.01 in0.3 mm 0.18 in4.6 mm
02:20 PM 59.1°F15.1°C 55.5°F13.1°C 88% 2.5 mph W4.0 kmh W 4.0 mph6.4 kmh 29.64 in1003.7 mb - 0.00 in0.0 mm 0.18 in4.6 mm
02:30 PM 59.1°F15.1°C 54.6°F12.6°C 85% 1.6 mph WNW2.6 kmh WNW 3.0 mph4.8 kmh 29.65 in1004.1 mb - 0.00 in0.0 mm 0.18 in4.6 mm
02:40 PM 59.3°F15.2°C 54.1°F12.3°C 83% 4.2 mph WSW6.8 kmh WSW 7.0 mph11.3 kmh 29.64 in1003.7 mb - 0.00 in0.0 mm 0.18 in4.6 mm
02:50 PM 59.7°F15.4°C 53.5°F11.9°C 80% 3.7 mph WNW6.0 kmh WNW 7.0 mph11.3 kmh 29.65 in1004.1 mb - 0.00 in0.0 mm 0.18 in4.6 mm
03:00 PM 60.6°F15.9°C 54.0°F12.2°C 79% 1.6 mph WSW2.6 kmh WSW 2.0 mph3.2 kmh 29.66 in1004.4 mb - 0.00 in0.0 mm 0.18 in4.6 mm
03:10 PM 60.8°F16.0°C 53.5°F11.9°C 77% 5.1 mph WSW8.2 kmh WSW 11.0 mph17.7 kmh 29.65 in1004.1 mb - 0.00 in0.0 mm 0.18 in4.6 mm
03:20 PM 60.5°F15.8°C 52.5°F11.4°C 75% 3.3 mph WSW5.3 kmh WSW 6.0 mph9.7 kmh 29.65 in1004.1 mb - 0.00 in0.0 mm 0.18 in4.6 mm
03:30 PM 60.3°F15.7°C 52.0°F11.1°C 74% 4.7 mph WSW7.6 kmh WSW 9.0 mph14.5 kmh 29.65 in1004.1 mb - 0.00 in0.0 mm 0.18 in4.6 mm
03:40 PM 60.1°F15.6°C 52.1°F11.2°C 75% 4.4 mph WSW7.1 kmh WSW 5.0 mph8.0 kmh 29.65 in1004.1 mb - 0.00 in0.0 mm 0.18 in4.6 mm
03:50 PM 59.8°F15.4°C 51.9°F11.1°C 75% 5.2 mph WSW8.4 kmh WSW 7.0 mph11.3 kmh 29.66 in1004.4 mb - 0.00 in0.0 mm 0.18 in4.6 mm
04:00 PM 59.7°F15.4°C 51.0°F10.6°C 73% 6.0 mph W9.7 kmh W 9.0 mph14.5 kmh 29.66 in1004.4 mb - 0.00 in0.0 mm 0.18 in4.6 mm
04:10 PM 60.0°F15.6°C 50.6°F10.3°C 71% 8.2 mph WNW13.2 kmh WNW 11.0 mph17.7 kmh 29.66 in1004.4 mb - 0.00 in0.0 mm 0.18 in4.6 mm
04:20 PM 60.7°F15.9°C 50.8°F10.4°C 70% 3.9 mph W6.3 kmh W 11.0 mph17.7 kmh 29.66 in1004.4 mb - 0.00 in0.0 mm 0.18 in4.6 mm
04:30 PM 61.3°F16.3°C 50.3°F10.2°C 67% 5.5 mph WSW8.9 kmh WSW 7.0 mph11.3 kmh 29.66 in1004.4 mb - 0.00 in0.0 mm 0.18 in4.6 mm
04:40 PM 62.1°F16.7°C 50.2°F10.1°C 65% 7.3 mph NW11.7 kmh NW 13.0 mph20.9 kmh 29.66 in1004.4 mb - 0.00 in0.0 mm 0.18 in4.6 mm
04:50 PM 61.4°F16.3°C 48.7°F9.3°C 63% 6.9 mph WSW11.1 kmh WSW 9.0 mph14.5 kmh 29.67 in1004.7 mb - 0.00 in0.0 mm 0.18 in4.6 mm
05:00 PM 61.0°F16.1°C 49.6°F9.8°C 66% 4.1 mph SSW6.6 kmh SSW 6.0 mph9.7 kmh 29.67 in1004.7 mb - 0.00 in0.0 mm 0.18 in4.6 mm
05:10 PM 61.3°F16.3°C 50.6°F10.3°C 68% 5.3 mph WSW8.5 kmh WSW 8.0 mph12.9 kmh 29.67 in1004.7 mb - 0.00 in0.0 mm 0.18 in4.6 mm
05:20 PM 61.6°F16.4°C 50.5°F10.3°C 67% 7.1 mph NW11.4 kmh NW 11.0 mph17.7 kmh 29.67 in1004.7 mb - 0.00 in0.0 mm 0.18 in4.6 mm
05:30 PM 61.4°F16.3°C 49.9°F9.9°C 66% 7.9 mph WNW12.7 kmh WNW 10.0 mph16.1 kmh 29.67 in1004.7 mb - 0.00 in0.0 mm 0.18 in4.6 mm
05:40 PM 62.0°F16.7°C 49.3°F9.6°C 63% 3.8 mph W6.1 kmh W 11.0 mph17.7 kmh 29.67 in1004.7 mb - 0.00 in0.0 mm 0.18 in4.6 mm
05:50 PM 62.4°F16.9°C 48.8°F9.3°C 61% 4.5 mph SW7.2 kmh SW 8.0 mph12.9 kmh 29.68 in1005.1 mb - 0.00 in0.0 mm 0.18 in4.6 mm
06:00 PM 62.3°F16.8°C 48.7°F9.3°C 61% 3.8 mph W6.1 kmh W 6.0 mph9.7 kmh 29.68 in1005.1 mb - 0.00 in0.0 mm 0.18 in4.6 mm
06:10 PM 62.6°F17.0°C 49.0°F9.4°C 61% 7.1 mph SW11.4 kmh SW 12.0 mph19.3 kmh 29.68 in1005.1 mb - 0.00 in0.0 mm 0.18 in4.6 mm
06:20 PM 62.2°F16.8°C 48.1°F8.9°C 60% 6.7 mph SSW10.8 kmh SSW 14.0 mph22.5 kmh 29.68 in1005.1 mb - 0.00 in0.0 mm 0.18 in4.6 mm
06:30 PM 62.0°F16.7°C 48.4°F9.1°C 61% 5.8 mph WSW9.3 kmh WSW 10.0 mph16.1 kmh 29.68 in1005.1 mb - 0.00 in0.0 mm 0.18 in4.6 mm
06:40 PM 61.9°F16.6°C 48.3°F9.1°C 61% 4.8 mph WSW7.7 kmh WSW 7.0 mph11.3 kmh 29.68 in1005.1 mb - 0.00 in0.0 mm 0.18 in4.6 mm
06:50 PM 61.4°F16.3°C 48.2°F9.0°C 62% 4.2 mph WNW6.8 kmh WNW 10.0 mph16.1 kmh 29.68 in1005.1 mb - 0.00 in0.0 mm 0.18 in4.6 mm
07:00 PM 60.8°F16.0°C 47.7°F8.7°C 62% 6.1 mph SW9.8 kmh SW 13.0 mph20.9 kmh 29.68 in1005.1 mb - 0.00 in0.0 mm 0.18 in4.6 mm
07:10 PM 60.4°F15.8°C 47.7°F8.7°C 63% 2.5 mph SW4.0 kmh SW 7.0 mph11.3 kmh 29.69 in1005.4 mb - 0.00 in0.0 mm 0.18 in4.6 mm
07:20 PM 60.0°F15.6°C 47.8°F8.8°C 64% 4.2 mph WSW6.8 kmh WSW 11.0 mph17.7 kmh 29.69 in1005.4 mb - 0.00 in0.0 mm 0.18 in4.6 mm
07:30 PM 59.6°F15.3°C 47.8°F8.8°C 65% 4.1 mph SW6.6 kmh SW 7.0 mph11.3 kmh 29.69 in1005.4 mb - 0.00 in0.0 mm 0.18 in4.6 mm
07:40 PM 59.3°F15.2°C 47.5°F8.6°C 65% 3.8 mph W6.1 kmh W 7.0 mph11.3 kmh 29.70 in1005.8 mb - 0.00 in0.0 mm 0.18 in4.6 mm
07:50 PM 58.8°F14.9°C 47.9°F8.8°C 67% 2.8 mph NW4.5 kmh NW 9.0 mph14.5 kmh 29.70 in1005.8 mb - 0.00 in0.0 mm 0.18 in4.6 mm
08:00 PM 58.4°F14.7°C 47.9°F8.8°C 68% 2.3 mph W3.7 kmh W 4.0 mph6.4 kmh 29.70 in1005.8 mb - 0.00 in0.0 mm 0.18 in4.6 mm
08:10 PM 58.0°F14.4°C 47.9°F8.8°C 69% 1.5 mph W2.4 kmh W 3.0 mph4.8 kmh 29.70 in1005.8 mb - 0.00 in0.0 mm 0.18 in4.6 mm
08:20 PM 57.6°F14.2°C 47.9°F8.8°C 70% 1.4 mph SW2.3 kmh SW 4.0 mph6.4 kmh 29.71 in1006.1 mb - 0.00 in0.0 mm 0.18 in4.6 mm
08:30 PM 57.2°F14.0°C 47.9°F8.8°C 71% 0.7 mph SW1.1 kmh SW 2.0 mph3.2 kmh 29.71 in1006.1 mb - 0.00 in0.0 mm 0.18 in4.6 mm
08:40 PM 56.8°F13.8°C 47.5°F8.6°C 71% 0.2 mph SW0.3 kmh SW 1.0 mph1.6 kmh 29.71 in1006.1 mb - 0.00 in0.0 mm 0.18 in4.6 mm
08:50 PM 56.4°F13.6°C 47.5°F8.6°C 72% 0.5 mph SW0.8 kmh SW 2.0 mph3.2 kmh 29.71 in1006.1 mb - 0.00 in0.0 mm 0.18 in4.6 mm
09:00 PM 56.0°F13.3°C 47.5°F8.6°C 73% 0.1 mph SW0.2 kmh SW 1.0 mph1.6 kmh 29.72 in1006.4 mb - 0.00 in0.0 mm 0.18 in4.6 mm
09:10 PM 55.6°F13.1°C 47.1°F8.4°C 73% Calm Calm 1.0 mph1.6 kmh 29.72 in1006.4 mb - 0.00 in0.0 mm 0.18 in4.6 mm
09:20 PM 55.2°F12.9°C 47.1°F8.4°C 74% 0.1 mph SW0.2 kmh SW 1.0 mph1.6 kmh 29.71 in1006.1 mb - 0.00 in0.0 mm 0.18 in4.6 mm
09:30 PM 54.8°F12.7°C 46.7°F8.2°C 74% Calm Calm -- 29.72 in1006.4 mb - 0.00 in0.0 mm 0.18 in4.6 mm
09:40 PM 54.5°F12.5°C 46.7°F8.2°C 75% 0.1 mph SW0.2 kmh SW 1.0 mph1.6 kmh 29.72 in1006.4 mb - 0.00 in0.0 mm 0.18 in4.6 mm
09:50 PM 54.2°F12.3°C 46.4°F8.0°C 75% Calm Calm 1.0 mph1.6 kmh 29.72 in1006.4 mb - 0.00 in0.0 mm 0.18 in4.6 mm
10:00 PM 54.0°F12.2°C 46.9°F8.3°C 77% 0.1 mph SE0.2 kmh SE 1.0 mph1.6 kmh 29.72 in1006.4 mb - 0.00 in0.0 mm 0.18 in4.6 mm
10:10 PM 53.7°F12.1°C 47.0°F8.3°C 78% Calm Calm -- 29.72 in1006.4 mb - 0.00 in0.0 mm 0.18 in4.6 mm
10:20 PM 53.5°F11.9°C 47.1°F8.4°C 79% Calm Calm -- 29.72 in1006.4 mb - 0.00 in0.0 mm 0.18 in4.6 mm
10:30 PM 53.2°F11.8°C 46.8°F8.2°C 79% 0.7 mph SE1.1 kmh SE 2.0 mph3.2 kmh 29.72 in1006.4 mb - 0.00 in0.0 mm 0.18 in4.6 mm
10:40 PM 52.9°F11.6°C 46.9°F8.3°C 80% 1.4 mph S2.3 kmh S 3.0 mph4.8 kmh 29.72 in1006.4 mb - 0.00 in0.0 mm 0.18 in4.6 mm
10:50 PM 52.6°F11.4°C 47.0°F8.3°C 81% Calm Calm -- 29.72 in1006.4 mb - 0.00 in0.0 mm 0.18 in4.6 mm
11:00 PM 52.4°F11.3°C 46.7°F8.2°C 81% 0.2 mph S0.3 kmh S 2.0 mph3.2 kmh 29.72 in1006.4 mb - 0.00 in0.0 mm 0.23 in5.8 mm
11:10 PM 52.3°F11.3°C 46.6°F8.1°C 81% Calm Calm -- 29.72 in1006.4 mb - 0.00 in0.0 mm 0.23 in5.8 mm
11:20 PM 52.1°F11.2°C 46.4°F8.0°C 81% Calm Calm -- 29.72 in1006.4 mb - 0.00 in0.0 mm 0.23 in5.8 mm
11:30 PM 51.8°F11.0°C 46.1°F7.8°C 81% Calm Calm -- 29.73 in1006.8 mb - 0.00 in0.0 mm 0.23 in5.8 mm
11:40 PM 51.4°F10.8°C 45.8°F7.7°C 81% Calm Calm -- 29.73 in1006.8 mb - 0.00 in0.0 mm 0.23 in5.8 mm
11:50 PM 51.1°F10.6°C 45.8°F7.7°C 82% Calm Calm -- 29.72 in1006.4 mb - 0.00 in0.0 mm 0.23 in5.8 mm